sensor_id;sensor_type;location;lat;lon;timestamp;pressure;altitude;pressure_sealevel;temperature;humidity
71805;BME280;59654;52.216;5.616;2022-09-09T00:00:34;100581.41;;;14.21;91.06
71805;BME280;59654;52.216;5.616;2022-09-09T00:01:37;100576.91;;;14.22;91.95
71805;BME280;59654;52.216;5.616;2022-09-09T00:02:31;100573.47;;;14.20;90.68
71805;BME280;59654;52.216;5.616;2022-09-09T00:03:12;100582.19;;;14.23;91.39
71805;BME280;59654;52.216;5.616;2022-09-09T00:03:55;100578.72;;;14.21;90.45
71805;BME280;59654;52.216;5.616;2022-09-09T00:04:36;100578.72;;;14.21;91.76
71805;BME280;59654;52.216;5.616;2022-09-09T00:07:03;100580.28;;;14.25;91.34
71805;BME280;59654;52.216;5.616;2022-09-09T00:08:04;100578.47;;;14.26;91.23
71805;BME280;59654;52.216;5.616;2022-09-09T00:10:15;100574.75;;;14.28;91.39
71805;BME280;59654;52.216;5.616;2022-09-09T00:11:03;100575.69;;;14.27;91.69
71805;BME280;59654;52.216;5.616;2022-09-09T00:11:43;100568.78;;;14.23;91.54
71805;BME280;59654;52.216;5.616;2022-09-09T00:13:37;100570.00;;;14.18;90.36
71805;BME280;59654;52.216;5.616;2022-09-09T00:14:26;100571.75;;;14.19;90.96
71805;BME280;59654;52.216;5.616;2022-09-09T00:15:15;100565.50;;;14.18;91.67
71805;BME280;59654;52.216;5.616;2022-09-09T00:16:19;100564.66;;;14.18;90.61
71805;BME280;59654;52.216;5.616;2022-09-09T00:16:56;100572.78;;;14.16;90.72
71805;BME280;59654;52.216;5.616;2022-09-09T00:17:40;100564.72;;;14.16;91.03
71805;BME280;59654;52.216;5.616;2022-09-09T00:19:01;100556.78;;;14.14;91.61
71805;BME280;59654;52.216;5.616;2022-09-09T00:19:50;100557.56;;;14.17;92.19
71805;BME280;59654;52.216;5.616;2022-09-09T00:20:35;100562.06;;;14.16;91.55
71805;BME280;59654;52.216;5.616;2022-09-09T00:21:14;100559.47;;;14.14;90.25
71805;BME280;59654;52.216;5.616;2022-09-09T00:22:15;100551.31;;;14.16;91.05
71805;BME280;59654;52.216;5.616;2022-09-09T00:22:57;100558.41;;;14.17;90.37
71805;BME280;59654;52.216;5.616;2022-09-09T00:23:53;100552.28;;;14.15;90.86
71805;BME280;59654;52.216;5.616;2022-09-09T00:24:28;100555.81;;;14.16;91.35
71805;BME280;59654;52.216;5.616;2022-09-09T00:25:12;100554.09;;;14.14;90.83
71805;BME280;59654;52.216;5.616;2022-09-09T00:26:02;100554.97;;;14.15;91.25
71805;BME280;59654;52.216;5.616;2022-09-09T00:26:46;100554.19;;;14.13;92.24
71805;BME280;59654;52.216;5.616;2022-09-09T00:27:22;100557.63;;;14.15;91.40
71805;BME280;59654;52.216;5.616;2022-09-09T00:28:00;100558.59;;;14.14;92.04
71805;BME280;59654;52.216;5.616;2022-09-09T00:28:38;100559.53;;;14.13;91.33
71805;BME280;59654;52.216;5.616;2022-09-09T00:29:38;100559.72;;;14.10;91.77
71805;BME280;59654;52.216;5.616;2022-09-09T00:30:34;100558.06;;;14.07;91.62
71805;BME280;59654;52.216;5.616;2022-09-09T00:31:16;100554.81;;;14.02;91.71
71805;BME280;59654;52.216;5.616;2022-09-09T00:31:56;100553.94;;;14.02;92.53
71805;BME280;59654;52.216;5.616;2022-09-09T00:32:34;100550.47;;;14.00;92.71
71805;BME280;59654;52.216;5.616;2022-09-09T00:33:19;100547.19;;;13.95;93.37
71805;BME280;59654;52.216;5.616;2022-09-09T00:33:53;100549.09;;;13.93;92.76
71805;BME280;59654;52.216;5.616;2022-09-09T00:34:27;100552.53;;;13.95;92.65
71805;BME280;59654;52.216;5.616;2022-09-09T00:35:03;100553.56;;;13.92;93.48
71805;BME280;59654;52.216;5.616;2022-09-09T00:35:52;100546.69;;;13.88;93.23
71805;BME280;59654;52.216;5.616;2022-09-09T00:36:26;100549.53;;;13.85;93.24
71805;BME280;59654;52.216;5.616;2022-09-09T00:36:59;100548.75;;;13.83;93.58
71805;BME280;59654;52.216;5.616;2022-09-09T00:37:32;100554.03;;;13.85;93.59
71805;BME280;59654;52.216;5.616;2022-09-09T00:38:25;100552.38;;;13.82;93.98
71805;BME280;59654;52.216;5.616;2022-09-09T00:39:03;100556.25;;;13.76;93.83
71805;BME280;59654;52.216;5.616;2022-09-09T00:40:11;100551.94;;;13.74;94.54
71805;BME280;59654;52.216;5.616;2022-09-09T00:40:38;100551.00;;;13.75;94.82
71805;BME280;59654;52.216;5.616;2022-09-09T00:41:36;100558.25;;;13.73;94.10
71805;BME280;59654;52.216;5.616;2022-09-09T00:43:30;100551.94;;;13.74;94.79
71805;BME280;59654;52.216;5.616;2022-09-09T00:46:46;100552.22;;;13.69;95.13
71805;BME280;59654;52.216;5.616;2022-09-09T00:48:31;100546.16;;;13.66;95.02
71805;BME280;59654;52.216;5.616;2022-09-09T00:49:35;100551.50;;;13.66;95.17
71805;BME280;59654;52.216;5.616;2022-09-09T00:51:17;100552.59;;;13.62;96.21
71805;BME280;59654;52.216;5.616;2022-09-09T00:54:56;100547.09;;;13.65;95.65
71805;BME280;59654;52.216;5.616;2022-09-09T00:57:01;100546.06;;;13.67;96.13
71805;BME280;59654;52.216;5.616;2022-09-09T00:58:12;100542.69;;;13.64;95.21
71805;BME280;59654;52.216;5.616;2022-09-09T00:58:57;100547.97;;;13.65;94.87
71805;BME280;59654;52.216;5.616;2022-09-09T00:59:56;100540.16;;;13.61;96.09
71805;BME280;59654;52.216;5.616;2022-09-09T01:00:43;100539.28;;;13.60;95.82
71805;BME280;59654;52.216;5.616;2022-09-09T01:01:15;100537.47;;;13.61;95.80
71805;BME280;59654;52.216;5.616;2022-09-09T01:01:46;100545.41;;;13.62;95.88
71805;BME280;59654;52.216;5.616;2022-09-09T01:02:27;100547.31;;;13.60;96.03
71805;BME280;59654;52.216;5.616;2022-09-09T01:04:16;100537.47;;;13.61;95.52
71805;BME280;59654;52.216;5.616;2022-09-09T01:04:52;100546.63;;;13.57;96.00
71805;BME280;59654;52.216;5.616;2022-09-09T01:07:15;100549.50;;;13.54;95.74
71805;BME280;59654;52.216;5.616;2022-09-09T01:07:49;100548.53;;;13.55;96.38
71805;BME280;59654;52.216;5.616;2022-09-09T01:10:50;100543.84;;;13.58;95.31
71805;BME280;59654;52.216;5.616;2022-09-09T01:12:41;100552.16;;;13.54;95.45
71805;BME280;59654;52.216;5.616;2022-09-09T01:13:24;100543.34;;;13.52;96.70
71805;BME280;59654;52.216;5.616;2022-09-09T01:15:50;100554.47;;;13.44;95.97
71805;BME280;59654;52.216;5.616;2022-09-09T01:16:24;100559.03;;;13.42;96.87
71805;BME280;59654;52.216;5.616;2022-09-09T01:17:01;100550.34;;;13.38;97.07
71805;BME280;59654;52.216;5.616;2022-09-09T01:18:22;100552.91;;;13.40;97.29
71805;BME280;59654;52.216;5.616;2022-09-09T01:18:58;100553.97;;;13.37;96.63
71805;BME280;59654;52.216;5.616;2022-09-09T01:20:10;100546.78;;;13.38;96.98
71805;BME280;59654;52.216;5.616;2022-09-09T01:22:44;100553.34;;;13.48;96.06
71805;BME280;59654;52.216;5.616;2022-09-09T01:25:22;100554.47;;;13.44;96.27
71805;BME280;59654;52.216;5.616;2022-09-09T01:26:28;100552.50;;;13.48;96.75
71805;BME280;59654;52.216;5.616;2022-09-09T01:27:09;100556.75;;;13.52;96.79
71805;BME280;59654;52.216;5.616;2022-09-09T01:27:43;100554.94;;;13.52;96.10
71805;BME280;59654;52.216;5.616;2022-09-09T01:28:26;100560.00;;;13.57;96.08
71805;BME280;59654;52.216;5.616;2022-09-09T01:29:09;100558.91;;;13.61;96.59
71805;BME280;59654;52.216;5.616;2022-09-09T01:29:44;100559.72;;;13.63;95.90
71805;BME280;59654;52.216;5.616;2022-09-09T01:30:18;100556.31;;;13.59;96.00
71805;BME280;59654;52.216;5.616;2022-09-09T01:30:51;100556.38;;;13.58;95.55
71805;BME280;59654;52.216;5.616;2022-09-09T01:31:37;100557.53;;;13.54;96.16
71805;BME280;59654;52.216;5.616;2022-09-09T01:32:39;100557.78;;;13.49;95.57
71805;BME280;59654;52.216;5.616;2022-09-09T01:33:15;100554.94;;;13.52;96.35
71805;BME280;59654;52.216;5.616;2022-09-09T01:33:47;100557.69;;;13.51;96.01
71805;BME280;59654;52.216;5.616;2022-09-09T01:34:21;100554.84;;;13.54;96.25
71805;BME280;59654;52.216;5.616;2022-09-09T01:34:53;100551.31;;;13.53;95.84
71805;BME280;59654;52.216;5.616;2022-09-09T01:35:45;100556.66;;;13.53;95.65
71805;BME280;59654;52.216;5.616;2022-09-09T01:37:32;100553.78;;;13.56;95.46
71805;BME280;59654;52.216;5.616;2022-09-09T01:38:03;100550.06;;;13.59;94.82
71805;BME280;59654;52.216;5.616;2022-09-09T01:38:36;100556.31;;;13.59;94.81
71805;BME280;59654;52.216;5.616;2022-09-09T01:39:07;100547.47;;;13.57;94.62
71805;BME280;59654;52.216;5.616;2022-09-09T01:39:41;100553.19;;;13.51;95.16
71805;BME280;59654;52.216;5.616;2022-09-09T01:40:16;100554.31;;;13.47;96.04
71805;BME280;59654;52.216;5.616;2022-09-09T01:40:47;100550.84;;;13.45;96.03
71805;BME280;59654;52.216;5.616;2022-09-09T01:41:19;100550.22;;;13.40;95.80
71805;BME280;59654;52.216;5.616;2022-09-09T01:42:08;100546.72;;;13.39;96.20
71805;BME280;59654;52.216;5.616;2022-09-09T01:42:39;100544.03;;;13.39;95.26
71805;BME280;59654;52.216;5.616;2022-09-09T01:43:10;100537.81;;;13.39;95.57
71805;BME280;59654;52.216;5.616;2022-09-09T01:43:41;100545.94;;;13.37;96.42
71805;BME280;59654;52.216;5.616;2022-09-09T01:44:13;100544.88;;;13.40;95.16
71805;BME280;59654;52.216;5.616;2022-09-09T01:44:48;100540.66;;;13.36;95.93
71805;BME280;59654;52.216;5.616;2022-09-09T01:45:19;100540.66;;;13.36;95.53
71805;BME280;59654;52.216;5.616;2022-09-09T01:45:54;100541.75;;;13.32;95.95
71805;BME280;59654;52.216;5.616;2022-09-09T01:46:28;100548.13;;;13.29;96.69
71805;BME280;59654;52.216;5.616;2022-09-09T01:47:00;100545.53;;;13.28;95.91
71805;BME280;59654;52.216;5.616;2022-09-09T01:47:30;100536.72;;;13.26;95.93
71805;BME280;59654;52.216;5.616;2022-09-09T01:48:16;100550.75;;;13.31;96.22
71805;BME280;59654;52.216;5.616;2022-09-09T01:48:55;100546.94;;;13.35;96.08
71805;BME280;59654;52.216;5.616;2022-09-09T01:52:02;100534.84;;;13.28;96.19
71805;BME280;59654;52.216;5.616;2022-09-09T01:53:12;100537.16;;;13.18;95.68
71805;BME280;59654;52.216;5.616;2022-09-09T01:53:47;100539.03;;;13.16;96.18
71805;BME280;59654;52.216;5.616;2022-09-09T01:54:22;100536.28;;;13.18;96.47
71805;BME280;59654;52.216;5.616;2022-09-09T01:54:56;100535.50;;;13.16;95.63
71805;BME280;59654;52.216;5.616;2022-09-09T01:55:40;100536.38;;;13.16;96.75
71805;BME280;59654;52.216;5.616;2022-09-09T01:57:33;100534.13;;;13.24;96.40
71805;BME280;59654;52.216;5.616;2022-09-09T02:02:30;100544.16;;;13.21;95.81
71805;BME280;59654;52.216;5.616;2022-09-09T02:03:25;100545.91;;;13.22;95.41
71805;BME280;59654;52.216;5.616;2022-09-09T02:06:36;100548.28;;;13.26;94.86
71805;BME280;59654;52.216;5.616;2022-09-09T02:07:42;100540.34;;;13.25;94.97
71805;BME280;59654;52.216;5.616;2022-09-09T02:08:42;100544.69;;;13.27;95.19
71805;BME280;59654;52.216;5.616;2022-09-09T02:09:19;100541.22;;;13.25;95.00
71805;BME280;59654;52.216;5.616;2022-09-09T02:11:37;100535.25;;;13.20;94.96
71805;BME280;59654;52.216;5.616;2022-09-09T02:12:20;100536.91;;;13.23;94.67
71805;BME280;59654;52.216;5.616;2022-09-09T02:13:21;100538.81;;;13.21;95.13
71805;BME280;59654;52.216;5.616;2022-09-09T02:14:17;100532.03;;;13.14;95.03
71805;BME280;59654;52.216;5.616;2022-09-09T02:15:03;100540.69;;;13.19;95.19
71805;BME280;59654;52.216;5.616;2022-09-09T02:15:56;100534.47;;;13.18;95.85
71805;BME280;59654;52.216;5.616;2022-09-09T02:16:56;100537.16;;;13.18;95.35
71805;BME280;59654;52.216;5.616;2022-09-09T02:17:46;100537.38;;;13.14;95.58
71805;BME280;59654;52.216;5.616;2022-09-09T02:18:27;100534.72;;;13.14;95.92
71805;BME280;59654;52.216;5.616;2022-09-09T02:19:11;100532.19;;;13.10;94.91
71805;BME280;59654;52.216;5.616;2022-09-09T02:20:12;100535.75;;;13.11;95.74
71805;BME280;59654;52.216;5.616;2022-09-09T02:20:51;100531.34;;;13.10;95.86
71805;BME280;59654;52.216;5.616;2022-09-09T02:21:28;100534.00;;;13.10;96.04
71805;BME280;59654;52.216;5.616;2022-09-09T02:22:01;100535.03;;;13.07;95.73
71805;BME280;59654;52.216;5.616;2022-09-09T02:22:35;100536.97;;;13.05;96.05
71805;BME280;59654;52.216;5.616;2022-09-09T02:23:12;100529.88;;;13.04;95.91
71805;BME280;59654;52.216;5.616;2022-09-09T02:23:49;100527.19;;;13.04;96.17
71805;BME280;59654;52.216;5.616;2022-09-09T02:24:22;100527.34;;;13.01;96.72
71805;BME280;59654;52.216;5.616;2022-09-09T02:25:06;100525.38;;;13.05;96.50
71805;BME280;59654;52.216;5.616;2022-09-09T02:25:41;100516.50;;;13.04;95.86
71805;BME280;59654;52.216;5.616;2022-09-09T02:26:21;100525.63;;;13.00;96.00
71805;BME280;59654;52.216;5.616;2022-09-09T02:27:01;100519.72;;;12.94;96.65
71805;BME280;59654;52.216;5.616;2022-09-09T02:27:36;100525.00;;;12.95;96.56
71805;BME280;59654;52.216;5.616;2022-09-09T02:28:10;100523.88;;;12.99;96.22
71805;BME280;59654;52.216;5.616;2022-09-09T02:28:43;100525.53;;;13.02;96.70
71805;BME280;59654;52.216;5.616;2022-09-09T02:29:25;100518.53;;;12.99;96.28
71805;BME280;59654;52.216;5.616;2022-09-09T02:30:01;100525.47;;;13.03;96.55
71805;BME280;59654;52.216;5.616;2022-09-09T02:30:50;100524.59;;;13.03;95.81
71805;BME280;59654;52.216;5.616;2022-09-09T02:31:28;100529.31;;;12.98;96.12
71805;BME280;59654;52.216;5.616;2022-09-09T02:32:09;100522.16;;;12.98;96.49
71805;BME280;59654;52.216;5.616;2022-09-09T02:32:46;100524.03;;;12.96;96.10
71805;BME280;59654;52.216;5.616;2022-09-09T02:33:27;100522.47;;;12.92;96.64
71805;BME280;59654;52.216;5.616;2022-09-09T02:34:04;100514.88;;;12.85;97.15
71805;BME280;59654;52.216;5.616;2022-09-09T02:34:42;100516.84;;;12.81;96.91
71805;BME280;59654;52.216;5.616;2022-09-09T02:35:19;100519.66;;;12.78;96.78
71805;BME280;59654;52.216;5.616;2022-09-09T02:35:55;100517.06;;;12.77;97.54
71805;BME280;59654;52.216;5.616;2022-09-09T02:36:35;100522.41;;;12.77;97.22
71805;BME280;59654;52.216;5.616;2022-09-09T02:37:11;100522.41;;;12.77;97.19
71805;BME280;59654;52.216;5.616;2022-09-09T02:37:45;100516.31;;;12.74;97.19
71805;BME280;59654;52.216;5.616;2022-09-09T02:38:17;100526.91;;;12.76;97.61
71805;BME280;59654;52.216;5.616;2022-09-09T02:39:01;100518.78;;;12.78;97.07
71805;BME280;59654;52.216;5.616;2022-09-09T02:39:37;100520.53;;;12.79;97.52
71805;BME280;59654;52.216;5.616;2022-09-09T02:40:12;100511.47;;;12.81;96.97
71805;BME280;59654;52.216;5.616;2022-09-09T02:40:49;100527.31;;;12.86;96.79
71805;BME280;59654;52.216;5.616;2022-09-09T02:41:26;100519.19;;;12.87;96.99
71805;BME280;59654;52.216;5.616;2022-09-09T02:41:59;100514.00;;;12.84;96.76
71805;BME280;59654;52.216;5.616;2022-09-09T02:42:55;100521.88;;;12.87;96.47
71805;BME280;59654;52.216;5.616;2022-09-09T02:43:25;100519.97;;;12.89;96.56
71805;BME280;59654;52.216;5.616;2022-09-09T02:43:56;100511.09;;;12.89;96.38
71805;BME280;59654;52.216;5.616;2022-09-09T02:44:28;100522.75;;;12.88;96.78
71805;BME280;59654;52.216;5.616;2022-09-09T02:44:59;100518.34;;;12.87;96.78
71805;BME280;59654;52.216;5.616;2022-09-09T02:45:48;100512.97;;;12.87;96.66
71805;BME280;59654;52.216;5.616;2022-09-09T02:46:41;100519.97;;;12.89;95.95
71805;BME280;59654;52.216;5.616;2022-09-09T02:48:27;100516.88;;;12.97;95.74
71805;BME280;59654;52.216;5.616;2022-09-09T02:49:09;100510.81;;;12.93;94.86
71805;BME280;59654;52.216;5.616;2022-09-09T02:50:12;100516.81;;;12.98;95.26
71805;BME280;59654;52.216;5.616;2022-09-09T02:51:08;100517.50;;;13.02;95.33
71805;BME280;59654;52.216;5.616;2022-09-09T02:52:01;100518.38;;;13.02;95.13
71805;BME280;59654;52.216;5.616;2022-09-09T02:53:50;100514.84;;;13.02;95.42
71805;BME280;59654;52.216;5.616;2022-09-09T02:54:27;100514.91;;;13.00;94.57
71805;BME280;59654;52.216;5.616;2022-09-09T02:55:11;100514.91;;;13.00;94.57
71805;BME280;59654;52.216;5.616;2022-09-09T02:56:03;100516.88;;;12.97;94.66
71805;BME280;59654;52.216;5.616;2022-09-09T02:56:43;100517.91;;;12.94;94.72
71805;BME280;59654;52.216;5.616;2022-09-09T02:57:23;100508.16;;;12.93;94.96
71805;BME280;59654;52.216;5.616;2022-09-09T02:57:59;100518.84;;;12.93;94.95
71805;BME280;59654;52.216;5.616;2022-09-09T02:58:36;100520.66;;;12.93;94.58
71805;BME280;59654;52.216;5.616;2022-09-09T02:59:10;100513.56;;;12.92;95.01
71805;BME280;59654;52.216;5.616;2022-09-09T02:59:44;100512.03;;;12.88;95.29
71805;BME280;59654;52.216;5.616;2022-09-09T03:00:15;100514.63;;;12.89;94.96
71805;BME280;59654;52.216;5.616;2022-09-09T03:00:48;100513.84;;;12.87;95.50
71805;BME280;59654;52.216;5.616;2022-09-09T03:01:20;100523.69;;;12.87;95.48
71805;BME280;59654;52.216;5.616;2022-09-09T03:01:51;100513.22;;;12.82;95.98
71805;BME280;59654;52.216;5.616;2022-09-09T03:02:24;100510.69;;;12.79;95.75
71805;BME280;59654;52.216;5.616;2022-09-09T03:02:59;100514.38;;;12.77;95.94
71805;BME280;59654;52.216;5.616;2022-09-09T03:03:31;100502.94;;;12.74;96.28
71805;BME280;59654;52.216;5.616;2022-09-09T03:04:04;100511.19;;;12.70;96.76
71805;BME280;59654;52.216;5.616;2022-09-09T03:04:35;100519.28;;;12.68;96.54
71805;BME280;59654;52.216;5.616;2022-09-09T03:05:06;100514.03;;;12.67;97.02
71805;BME280;59654;52.216;5.616;2022-09-09T03:05:37;100513.94;;;12.68;97.09
71805;BME280;59654;52.216;5.616;2022-09-09T03:06:09;100516.63;;;12.68;97.30
71805;BME280;59654;52.216;5.616;2022-09-09T03:06:42;100515.84;;;12.66;96.63
71805;BME280;59654;52.216;5.616;2022-09-09T03:07:21;100510.47;;;12.66;96.63
71805;BME280;59654;52.216;5.616;2022-09-09T03:07:54;100518.44;;;12.68;96.64
71805;BME280;59654;52.216;5.616;2022-09-09T03:08:25;100520.31;;;12.66;96.93
71805;BME280;59654;52.216;5.616;2022-09-09T03:08:58;100513.78;;;12.71;96.36
71805;BME280;59654;52.216;5.616;2022-09-09T03:09:32;100519.28;;;12.68;96.20
71805;BME280;59654;52.216;5.616;2022-09-09T03:10:03;100515.91;;;12.65;96.42
71805;BME280;59654;52.216;5.616;2022-09-09T03:10:34;100522.13;;;12.65;96.68
71805;BME280;59654;52.216;5.616;2022-09-09T03:11:06;100518.59;;;12.65;96.87
71805;BME280;59654;52.216;5.616;2022-09-09T03:11:40;100515.03;;;12.64;96.87
71805;BME280;59654;52.216;5.616;2022-09-09T03:12:12;100514.31;;;12.61;96.88
71805;BME280;59654;52.216;5.616;2022-09-09T03:12:43;100517.19;;;12.58;97.17
71805;BME280;59654;52.216;5.616;2022-09-09T03:13:15;100516.22;;;12.59;97.63
71805;BME280;59654;52.216;5.616;2022-09-09T03:13:46;100512.59;;;12.60;96.87
71805;BME280;59654;52.216;5.616;2022-09-09T03:14:17;100517.00;;;12.61;97.41
71805;BME280;59654;52.216;5.616;2022-09-09T03:14:51;100516.06;;;12.62;97.01
71805;BME280;59654;52.216;5.616;2022-09-09T03:15:22;100511.50;;;12.64;97.15
71805;BME280;59654;52.216;5.616;2022-09-09T03:15:53;100515.97;;;12.63;96.94
71805;BME280;59654;52.216;5.616;2022-09-09T03:16:25;100516.06;;;12.62;96.54
71805;BME280;59654;52.216;5.616;2022-09-09T03:16:57;100509.63;;;12.66;96.80
71805;BME280;59654;52.216;5.616;2022-09-09T03:17:31;100513.31;;;12.63;96.46
71805;BME280;59654;52.216;5.616;2022-09-09T03:18:02;100507.00;;;12.64;96.79
71805;BME280;59654;52.216;5.616;2022-09-09T03:18:33;100515.97;;;12.63;97.02
71805;BME280;59654;52.216;5.616;2022-09-09T03:19:04;100514.88;;;12.67;96.04
71805;BME280;59654;52.216;5.616;2022-09-09T03:19:36;100513.16;;;12.66;96.14
71805;BME280;59654;52.216;5.616;2022-09-09T03:20:08;100515.84;;;12.66;96.53
71805;BME280;59654;52.216;5.616;2022-09-09T03:20:42;100514.25;;;12.62;96.18
71805;BME280;59654;52.216;5.616;2022-09-09T03:21:13;100519.69;;;12.61;96.12
71805;BME280;59654;52.216;5.616;2022-09-09T03:21:46;100516.84;;;12.64;95.98
71805;BME280;59654;52.216;5.616;2022-09-09T03:22:17;100517.19;;;12.58;96.82
71805;BME280;59654;52.216;5.616;2022-09-09T03:22:49;100515.56;;;12.54;97.01
71805;BME280;59654;52.216;5.616;2022-09-09T03:23:20;100518.31;;;12.52;97.09
71805;BME280;59654;52.216;5.616;2022-09-09T03:23:52;100522.16;;;12.47;97.37
71805;BME280;59654;52.216;5.616;2022-09-09T03:24:23;100517.91;;;12.43;97.91
71805;BME280;59654;52.216;5.616;2022-09-09T03:24:54;100521.22;;;12.48;97.44
71805;BME280;59654;52.216;5.616;2022-09-09T03:25:26;100515.09;;;12.46;97.68
71805;BME280;59654;52.216;5.616;2022-09-09T03:25:59;100523.09;;;12.46;97.96
71805;BME280;59654;52.216;5.616;2022-09-09T03:26:40;100522.00;;;12.50;96.93
71805;BME280;59654;52.216;5.616;2022-09-09T03:27:15;100518.31;;;12.52;97.66
71805;BME280;59654;52.216;5.616;2022-09-09T03:27:46;100521.78;;;12.54;97.11
71805;BME280;59654;52.216;5.616;2022-09-09T03:28:18;100520.72;;;12.58;97.50
71805;BME280;59654;52.216;5.616;2022-09-09T03:28:49;100521.75;;;12.56;96.82
71805;BME280;59654;52.216;5.616;2022-09-09T03:29:24;100515.47;;;12.57;96.79
71805;BME280;59654;52.216;5.616;2022-09-09T03:29:58;100514.72;;;12.53;97.05
71805;BME280;59654;52.216;5.616;2022-09-09T03:30:29;100521.00;;;12.52;97.07
71805;BME280;59654;52.216;5.616;2022-09-09T03:31:02;100522.00;;;12.50;97.00
71805;BME280;59654;52.216;5.616;2022-09-09T03:31:40;100517.47;;;12.52;97.14
71805;BME280;59654;52.216;5.616;2022-09-09T03:32:11;100519.19;;;12.53;97.56
71805;BME280;59654;52.216;5.616;2022-09-09T03:32:43;100521.88;;;12.53;97.01
71805;BME280;59654;52.216;5.616;2022-09-09T03:33:14;100518.31;;;12.52;96.67
71805;BME280;59654;52.216;5.616;2022-09-09T03:33:47;100515.81;;;12.49;97.25
71805;BME280;59654;52.216;5.616;2022-09-09T03:34:20;100510.69;;;12.45;97.76
71805;BME280;59654;52.216;5.616;2022-09-09T03:34:51;100518.88;;;12.42;97.08
71805;BME280;59654;52.216;5.616;2022-09-09T03:35:23;100519.66;;;12.44;97.44
71805;BME280;59654;52.216;5.616;2022-09-09T03:35:53;100517.91;;;12.43;97.77
71805;BME280;59654;52.216;5.616;2022-09-09T03:36:27;100526.03;;;12.41;97.72
71805;BME280;59654;52.216;5.616;2022-09-09T03:36:59;100511.88;;;12.39;97.97
71805;BME280;59654;52.216;5.616;2022-09-09T03:37:31;100510.06;;;12.39;98.35
71805;BME280;59654;52.216;5.616;2022-09-09T03:38:02;100512.50;;;12.44;98.00
71805;BME280;59654;52.216;5.616;2022-09-09T03:38:36;100512.50;;;12.44;97.93
71805;BME280;59654;52.216;5.616;2022-09-09T03:39:07;100510.53;;;12.48;97.60
71805;BME280;59654;52.216;5.616;2022-09-09T03:39:38;100510.75;;;12.43;98.07
71805;BME280;59654;52.216;5.616;2022-09-09T03:40:09;100509.88;;;12.43;97.79
71805;BME280;59654;52.216;5.616;2022-09-09T03:40:48;100511.53;;;12.45;97.50
71805;BME280;59654;52.216;5.616;2022-09-09T03:41:22;100512.41;;;12.46;97.37
71805;BME280;59654;52.216;5.616;2022-09-09T03:41:54;100515.25;;;12.43;97.51
71805;BME280;59654;52.216;5.616;2022-09-09T03:42:26;100514.22;;;12.45;97.72
71805;BME280;59654;52.216;5.616;2022-09-09T03:42:59;100509.66;;;12.47;97.22
71805;BME280;59654;52.216;5.616;2022-09-09T03:43:30;100512.69;;;12.41;97.56
71805;BME280;59654;52.216;5.616;2022-09-09T03:44:02;100514.41;;;12.42;97.69
71805;BME280;59654;52.216;5.616;2022-09-09T03:44:37;100513.28;;;12.46;97.61
71805;BME280;59654;52.216;5.616;2022-09-09T03:45:09;100515.25;;;12.43;97.42
71805;BME280;59654;52.216;5.616;2022-09-09T03:45:46;100518.88;;;12.42;97.72
71805;BME280;59654;52.216;5.616;2022-09-09T03:46:20;100516.09;;;12.43;97.64
71805;BME280;59654;52.216;5.616;2022-09-09T03:46:52;100512.50;;;12.44;97.37
71805;BME280;59654;52.216;5.616;2022-09-09T03:47:23;100517.69;;;12.47;97.02
71805;BME280;59654;52.216;5.616;2022-09-09T03:47:57;100517.84;;;12.44;97.09
71805;BME280;59654;52.216;5.616;2022-09-09T03:48:28;100513.34;;;12.45;97.01
71805;BME280;59654;52.216;5.616;2022-09-09T03:49:00;100509.75;;;12.46;97.27
71805;BME280;59654;52.216;5.616;2022-09-09T03:49:32;100514.00;;;12.50;97.29
71805;BME280;59654;52.216;5.616;2022-09-09T03:50:04;100507.00;;;12.47;97.96
71805;BME280;59654;52.216;5.616;2022-09-09T03:50:39;100510.38;;;12.51;97.45
71805;BME280;59654;52.216;5.616;2022-09-09T03:51:09;100517.53;;;12.50;97.15
71805;BME280;59654;52.216;5.616;2022-09-09T03:51:41;100513.13;;;12.49;96.92
71805;BME280;59654;52.216;5.616;2022-09-09T03:52:15;100514.06;;;12.48;97.32
71805;BME280;59654;52.216;5.616;2022-09-09T03:52:46;100522.25;;;12.45;97.46
71805;BME280;59654;52.216;5.616;2022-09-09T03:53:25;100515.25;;;12.43;96.79
71805;BME280;59654;52.216;5.616;2022-09-09T03:53:56;100515.25;;;12.43;97.48
71805;BME280;59654;52.216;5.616;2022-09-09T03:54:29;100514.16;;;12.47;97.19
71805;BME280;59654;52.216;5.616;2022-09-09T03:55:00;100516.81;;;12.47;97.15
71805;BME280;59654;52.216;5.616;2022-09-09T03:55:31;100516.91;;;12.45;97.24
71805;BME280;59654;52.216;5.616;2022-09-09T03:56:03;100512.69;;;12.41;97.15
71805;BME280;59654;52.216;5.616;2022-09-09T03:56:36;100516.38;;;12.38;97.57
71805;BME280;59654;52.216;5.616;2022-09-09T03:57:09;100510.22;;;12.36;97.69
71805;BME280;59654;52.216;5.616;2022-09-09T03:57:40;100508.50;;;12.35;97.39
71805;BME280;59654;52.216;5.616;2022-09-09T03:58:14;100515.50;;;12.38;97.94
71805;BME280;59654;52.216;5.616;2022-09-09T03:58:46;100515.41;;;12.39;97.55
71805;BME280;59654;52.216;5.616;2022-09-09T03:59:17;100513.75;;;12.37;97.68
71805;BME280;59654;52.216;5.616;2022-09-09T03:59:48;100512.09;;;12.34;98.04
71805;BME280;59654;52.216;5.616;2022-09-09T04:00:20;100515.72;;;12.33;97.78
71805;BME280;59654;52.216;5.616;2022-09-09T04:00:58;100504.81;;;12.38;97.74
71805;BME280;59654;52.216;5.616;2022-09-09T04:01:30;100507.56;;;12.36;98.10
71805;BME280;59654;52.216;5.616;2022-09-09T04:02:01;100513.91;;;12.34;97.74
71805;BME280;59654;52.216;5.616;2022-09-09T04:02:33;100519.41;;;12.31;98.13
71805;BME280;59654;52.216;5.616;2022-09-09T04:03:03;100510.53;;;12.30;98.48
71805;BME280;59654;52.216;5.616;2022-09-09T04:03:34;100513.34;;;12.27;98.31
71805;BME280;59654;52.216;5.616;2022-09-09T04:04:05;100511.78;;;12.23;98.73